sensor_id;sensor_type;location;lat;lon;timestamp;pressure;altitude;pressure_sealevel;temperature;humidity
14343;BME280;7255;53.596;9.960;2022-11-11T00:00:48;102351.03;;;12.39;nan
14343;BME280;7255;53.596;9.960;2022-11-11T00:03:14;102357.19;;;12.32;nan
14343;BME280;7255;53.596;9.960;2022-11-11T00:05:41;102357.53;;;12.23;nan
14343;BME280;7255;53.596;9.960;2022-11-11T00:08:07;102358.78;;;12.20;nan
14343;BME280;7255;53.596;9.960;2022-11-11T00:10:33;102362.13;;;12.22;nan
14343;BME280;7255;53.596;9.960;2022-11-11T00:13:02;102365.81;;;12.21;nan
14343;BME280;7255;53.596;9.960;2022-11-11T00:15:29;102349.31;;;12.31;nan
14343;BME280;7255;53.596;9.960;2022-11-11T00:17:56;102360.50;;;12.28;nan
14343;BME280;7255;53.596;9.960;2022-11-11T00:20:40;102355.16;;;12.35;nan
14343;BME280;7255;53.596;9.960;2022-11-11T00:23:26;102348.09;;;12.33;nan
14343;BME280;7255;53.596;9.960;2022-11-11T00:26:13;102341.03;;;12.32;nan
14343;BME280;7255;53.596;9.960;2022-11-11T00:28:41;102353.47;;;12.33;nan
14343;BME280;7255;53.596;9.960;2022-11-11T00:31:10;102350.16;;;12.31;nan
14343;BME280;7255;53.596;9.960;2022-11-11T00:33:37;102339.81;;;12.35;nan
14343;BME280;7255;53.596;9.960;2022-11-11T00:36:04;102340.25;;;12.39;nan
14343;BME280;7255;53.596;9.960;2022-11-11T00:38:30;102340.69;;;12.42;nan
14343;BME280;7255;53.596;9.960;2022-11-11T00:41:13;102336.50;;;12.40;nan
14343;BME280;7255;53.596;9.960;2022-11-11T00:43:42;102334.06;;;12.45;nan
14343;BME280;7255;53.596;9.960;2022-11-11T00:46:09;102344.47;;;12.48;nan
14343;BME280;7255;53.596;9.960;2022-11-11T00:48:53;102333.19;;;12.38;nan
14343;BME280;7255;53.596;9.960;2022-11-11T00:51:37;102327.16;;;12.36;nan
14343;BME280;7255;53.596;9.960;2022-11-11T00:54:04;102337.38;;;12.47;nan
14343;BME280;7255;53.596;9.960;2022-11-11T00:56:31;102342.37;;;12.50;nan
14343;BME280;7255;53.596;9.960;2022-11-11T00:58:59;102353.53;;;12.40;nan
14343;BME280;7255;53.596;9.960;2022-11-11T01:01:25;102352.34;;;12.49;nan
14343;BME280;7255;53.596;9.960;2022-11-11T01:03:51;102341.50;;;12.43;nan
14343;BME280;7255;53.596;9.960;2022-11-11T01:06:18;102342.69;;;12.33;nan
14343;BME280;7255;53.596;9.960;2022-11-11T01:08:44;102343.97;;;12.38;nan
14343;BME280;7255;53.596;9.960;2022-11-11T01:11:12;102351.66;;;12.41;nan
14343;BME280;7255;53.596;9.960;2022-11-11T01:13:40;102342.75;;;12.40;nan
14343;BME280;7255;53.596;9.960;2022-11-11T01:16:11;102347.28;;;12.40;nan
14343;BME280;7255;53.596;9.960;2022-11-11T01:18:37;102344.41;;;12.41;nan
14343;BME280;7255;53.596;9.960;2022-11-11T01:21:06;102353.56;;;12.47;nan
14343;BME280;7255;53.596;9.960;2022-11-11T01:23:35;102368.09;;;12.46;nan
14343;BME280;7255;53.596;9.960;2022-11-11T01:26:03;102374.31;;;12.46;nan
14343;BME280;7255;53.596;9.960;2022-11-11T01:28:30;102357.25;;;12.39;nan
14343;BME280;7255;53.596;9.960;2022-11-11T01:31:01;102356.88;;;12.49;nan
14343;BME280;7255;53.596;9.960;2022-11-11T01:33:28;102349.47;;;12.51;nan
14343;BME280;7255;53.596;9.960;2022-11-11T01:35:55;102355.91;;;12.57;nan
14343;BME280;7255;53.596;9.960;2022-11-11T01:38:21;102348.28;;;12.60;nan
14343;BME280;7255;53.596;9.960;2022-11-11T01:40:48;102355.31;;;12.61;nan
14343;BME280;7255;53.596;9.960;2022-11-11T01:43:18;102351.59;;;12.62;nan
14343;BME280;7255;53.596;9.960;2022-11-11T01:45:52;102361.97;;;12.65;nan
14343;BME280;7255;53.596;9.960;2022-11-11T01:48:24;102354.50;;;12.67;nan
14343;BME280;7255;53.596;9.960;2022-11-11T01:51:15;102359.88;;;12.61;nan
14343;BME280;7255;53.596;9.960;2022-11-11T01:53:45;102346.59;;;12.59;nan
14343;BME280;7255;53.596;9.960;2022-11-11T01:56:14;102342.03;;;12.60;nan
14343;BME280;7255;53.596;9.960;2022-11-11T01:58:40;102344.87;;;12.51;nan
14343;BME280;7255;53.596;9.960;2022-11-11T02:01:06;102349.03;;;12.54;nan
14343;BME280;7255;53.596;9.960;2022-11-11T02:03:38;102344.91;;;12.58;nan
14343;BME280;7255;53.596;9.960;2022-11-11T02:06:05;102337.03;;;12.57;nan
14343;BME280;7255;53.596;9.960;2022-11-11T02:08:34;102335.41;;;12.62;nan
14343;BME280;7255;53.596;9.960;2022-11-11T02:11:04;102341.69;;;12.69;nan
14343;BME280;7255;53.596;9.960;2022-11-11T02:13:33;102326.72;;;12.67;nan
14343;BME280;7255;53.596;9.960;2022-11-11T02:16:20;102332.53;;;12.64;nan
14343;BME280;7255;53.596;9.960;2022-11-11T02:18:46;102339.19;;;12.75;nan
14343;BME280;7255;53.596;9.960;2022-11-11T02:21:17;102322.56;;;12.71;nan
14343;BME280;7255;53.596;9.960;2022-11-11T02:23:54;102322.13;;;12.67;nan
14343;BME280;7255;53.596;9.960;2022-11-11T02:26:21;102319.25;;;12.69;nan
14343;BME280;7255;53.596;9.960;2022-11-11T02:28:50;102329.22;;;12.68;nan
14343;BME280;7255;53.596;9.960;2022-11-11T02:31:17;102333.34;;;12.64;nan
14343;BME280;7255;53.596;9.960;2022-11-11T02:33:43;102333.75;;;12.61;nan
14343;BME280;7255;53.596;9.960;2022-11-11T02:36:13;102324.22;;;12.65;nan
14343;BME280;7255;53.596;9.960;2022-11-11T02:38:40;102322.13;;;12.67;nan
14343;BME280;7255;53.596;9.960;2022-11-11T02:41:09;102311.16;;;12.62;nan
14343;BME280;7255;53.596;9.960;2022-11-11T02:43:53;102310.44;;;12.47;nan
14343;BME280;7255;53.596;9.960;2022-11-11T02:46:19;102306.22;;;12.38;nan
14343;BME280;7255;53.596;9.960;2022-11-11T02:48:46;102306.62;;;12.35;nan
14343;BME280;7255;53.596;9.960;2022-11-11T02:51:12;102311.63;;;12.38;nan
14343;BME280;7255;53.596;9.960;2022-11-11T02:53:38;102321.13;;;12.33;nan
14343;BME280;7255;53.596;9.960;2022-11-11T02:56:05;102319.38;;;12.19;nan
14343;BME280;7255;53.596;9.960;2022-11-11T02:58:33;102327.63;;;12.11;nan
14343;BME280;7255;53.596;9.960;2022-11-11T03:00:59;102323.78;;;11.99;nan
14343;BME280;7255;53.596;9.960;2022-11-11T03:03:26;102342.47;;;12.00;nan
14343;BME280;7255;53.596;9.960;2022-11-11T03:05:52;102345.78;;;12.02;nan
14343;BME280;7255;53.596;9.960;2022-11-11T03:08:18;102354.50;;;12.04;nan
14343;BME280;7255;53.596;9.960;2022-11-11T03:10:45;102349.84;;;11.91;nan
14343;BME280;7255;53.596;9.960;2022-11-11T03:13:11;102346.94;;;11.93;nan
14343;BME280;7255;53.596;9.960;2022-11-11T03:15:39;102356.50;;;11.96;nan
14343;BME280;7255;53.596;9.960;2022-11-11T03:18:05;102370.59;;;11.98;nan
14343;BME280;7255;53.596;9.960;2022-11-11T03:20:30;102359.81;;;11.98;nan
14343;BME280;7255;53.596;9.960;2022-11-11T03:23:26;102363.59;;;12.03;nan
14343;BME280;7255;53.596;9.960;2022-11-11T03:25:52;102361.13;;;12.02;nan
14343;BME280;7255;53.596;9.960;2022-11-11T03:28:20;102356.75;;;12.01;nan
14343;BME280;7255;53.596;9.960;2022-11-11T03:30:50;102346.62;;;12.03;nan
14343;BME280;7255;53.596;9.960;2022-11-11T03:33:17;102360.69;;;11.98;nan
14343;BME280;7255;53.596;9.960;2022-11-11T03:35:45;102347.00;;;12.00;nan
14343;BME280;7255;53.596;9.960;2022-11-11T03:38:13;102343.22;;;11.94;nan
14343;BME280;7255;53.596;9.960;2022-11-11T03:40:49;102359.81;;;11.98;nan
14343;BME280;7255;53.596;9.960;2022-11-11T03:43:17;102363.50;;;11.90;nan
14343;BME280;7255;53.596;9.960;2022-11-11T03:45:44;102355.53;;;11.82;nan
14343;BME280;7255;53.596;9.960;2022-11-11T03:48:13;102368.03;;;11.89;nan
14343;BME280;7255;53.596;9.960;2022-11-11T03:50:40;102366.06;;;11.98;nan
14343;BME280;7255;53.596;9.960;2022-11-11T03:53:06;102369.63;;;11.84;nan
14343;BME280;7255;53.596;9.960;2022-11-11T03:55:32;102375.41;;;11.81;nan
14343;BME280;7255;53.596;9.960;2022-11-11T03:57:59;102378.78;;;11.89;nan
14343;BME280;7255;53.596;9.960;2022-11-11T04:00:27;102387.78;;;11.75;nan
14343;BME280;7255;53.596;9.960;2022-11-11T04:03:00;102382.75;;;11.72;nan
14343;BME280;7255;53.596;9.960;2022-11-11T04:05:46;102379.06;;;11.73;nan
14343;BME280;7255;53.596;9.960;2022-11-11T04:08:30;102380.22;;;11.64;nan
14343;BME280;7255;53.596;9.960;2022-11-11T04:11:18;102383.16;;;11.69;nan
14343;BME280;7255;53.596;9.960;2022-11-11T04:13:47;102391.56;;;11.81;nan
14343;BME280;7255;53.596;9.960;2022-11-11T04:16:31;102394.97;;;11.89;nan
14343;BME280;7255;53.596;9.960;2022-11-11T04:18:57;102387.41;;;11.78;nan
14343;BME280;7255;53.596;9.960;2022-11-11T04:21:43;102386.94;;;11.74;nan
14343;BME280;7255;53.596;9.960;2022-11-11T04:24:10;102382.19;;;11.55;nan
14343;BME280;7255;53.596;9.960;2022-11-11T04:26:55;102375.97;;;11.54;nan
14343;BME280;7255;53.596;9.960;2022-11-11T04:29:22;102384.59;;;11.50;nan
14343;BME280;7255;53.596;9.960;2022-11-11T04:31:54;102373.34;;;11.40;nan
14343;BME280;7255;53.596;9.960;2022-11-11T04:34:42;102383.78;;;11.49;nan
14343;BME280;7255;53.596;9.960;2022-11-11T04:37:11;102378.75;;;11.46;nan
14343;BME280;7255;53.596;9.960;2022-11-11T04:39:38;102380.44;;;11.47;nan
14343;BME280;7255;53.596;9.960;2022-11-11T04:42:22;102387.09;;;11.51;nan
14343;BME280;7255;53.596;9.960;2022-11-11T04:44:48;102399.94;;;11.49;nan
14343;BME280;7255;53.596;9.960;2022-11-11T04:47:32;102388.91;;;11.44;nan
14343;BME280;7255;53.596;9.960;2022-11-11T04:49:58;102387.09;;;11.51;nan
14343;BME280;7255;53.596;9.960;2022-11-11T04:52:26;102396.22;;;11.50;nan
14343;BME280;7255;53.596;9.960;2022-11-11T04:54:53;102396.13;;;11.44;nan
14343;BME280;7255;53.596;9.960;2022-11-11T04:57:39;102393.13;;;11.32;nan
14343;BME280;7255;53.596;9.960;2022-11-11T05:00:07;102397.19;;;11.28;nan
14343;BME280;7255;53.596;9.960;2022-11-11T05:02:33;102387.75;;;11.32;nan
14343;BME280;7255;53.596;9.960;2022-11-11T05:05:17;102383.25;;;11.39;nan
14343;BME280;7255;53.596;9.960;2022-11-11T05:07:45;102392.81;;;11.42;nan
14343;BME280;7255;53.596;9.960;2022-11-11T05:10:29;102389.03;;;11.36;nan
14343;BME280;7255;53.596;9.960;2022-11-11T05:12:55;102389.47;;;11.40;nan
14343;BME280;7255;53.596;9.960;2022-11-11T05:15:42;102390.62;;;11.30;nan
14343;BME280;7255;53.596;9.960;2022-11-11T05:18:26;102382.50;;;11.45;nan
14343;BME280;7255;53.596;9.960;2022-11-11T05:21:21;102373.34;;;11.40;nan
14343;BME280;7255;53.596;9.960;2022-11-11T05:23:50;102377.72;;;11.26;nan
14343;BME280;7255;53.596;9.960;2022-11-11T05:26:34;102370.69;;;11.25;nan
14343;BME280;7255;53.596;9.960;2022-11-11T05:29:01;102365.75;;;11.28;nan
14343;BME280;7255;53.596;9.960;2022-11-11T05:31:28;102381.91;;;11.28;nan
14343;BME280;7255;53.596;9.960;2022-11-11T05:33:54;102377.25;;;11.22;nan
14343;BME280;7255;53.596;9.960;2022-11-11T05:36:21;102380.53;;;11.17;nan
14343;BME280;7255;53.596;9.960;2022-11-11T05:38:49;102386.37;;;11.21;nan
14343;BME280;7255;53.596;9.960;2022-11-11T05:41:15;102392.22;;;11.25;nan
14343;BME280;7255;53.596;9.960;2022-11-11T05:43:42;102393.41;;;11.22;nan
14343;BME280;7255;53.596;9.960;2022-11-11T05:46:08;102397.19;;;11.28;nan
14343;BME280;7255;53.596;9.960;2022-11-11T05:48:34;102397.13;;;11.21;nan
14343;BME280;7255;53.596;9.960;2022-11-11T05:51:20;102397.59;;;11.25;nan
14343;BME280;7255;53.596;9.960;2022-11-11T05:53:54;102388.84;;;11.23;nan
14343;BME280;7255;53.596;9.960;2022-11-11T05:56:20;102391.44;;;11.31;nan
14343;BME280;7255;53.596;9.960;2022-11-11T05:58:47;102389.75;;;11.30;nan
14343;BME280;7255;53.596;9.960;2022-11-11T06:01:13;102383.84;;;11.20;nan
14343;BME280;7255;53.596;9.960;2022-11-11T06:03:39;102402.56;;;11.28;nan
14343;BME280;7255;53.596;9.960;2022-11-11T06:06:06;102390.16;;;11.27;nan
14343;BME280;7255;53.596;9.960;2022-11-11T06:08:32;102397.13;;;11.21;nan
14343;BME280;7255;53.596;9.960;2022-11-11T06:11:00;102395.75;;;11.10;nan
14343;BME280;7255;53.596;9.960;2022-11-11T06:13:26;102405.28;;;11.13;nan
14343;BME280;7255;53.596;9.960;2022-11-11T06:15:55;102407.34;;;11.11;nan
14343;BME280;7255;53.596;9.960;2022-11-11T06:18:21;102402.78;;;11.11;nan
14343;BME280;7255;53.596;9.960;2022-11-11T06:20:51;102398.63;;;11.09;nan
14343;BME280;7255;53.596;9.960;2022-11-11T06:23:17;102409.84;;;11.12;nan
14343;BME280;7255;53.596;9.960;2022-11-11T06:25:44;102409.47;;;11.15;nan
14343;BME280;7255;53.596;9.960;2022-11-11T06:28:29;102417.78;;;11.21;nan
14343;BME280;7255;53.596;9.960;2022-11-11T06:30:55;102433.00;;;11.13;nan
14343;BME280;7255;53.596;9.960;2022-11-11T06:33:22;102426.81;;;11.13;nan
14343;BME280;7255;53.596;9.960;2022-11-11T06:35:48;102433.78;;;11.07;nan
14343;BME280;7255;53.596;9.960;2022-11-11T06:38:15;102443.53;;;11.08;nan
14343;BME280;7255;53.596;9.960;2022-11-11T06:40:42;102453.19;;;11.03;nan
14343;BME280;7255;53.596;9.960;2022-11-11T06:43:09;102447.81;;;11.03;nan
14343;BME280;7255;53.596;9.960;2022-11-11T06:45:36;102453.63;;;11.06;nan
14343;BME280;7255;53.596;9.960;2022-11-11T06:48:04;102465.69;;;11.10;nan
14343;BME280;7255;53.596;9.960;2022-11-11T06:50:31;102463.94;;;11.03;nan
14343;BME280;7255;53.596;9.960;2022-11-11T06:53:03;102461.44;;;11.01;nan
14343;BME280;7255;53.596;9.960;2022-11-11T06:55:29;102464.94;;;10.87;nan
14343;BME280;7255;53.596;9.960;2022-11-11T06:58:03;102475.97;;;10.77;nan
14343;BME280;7255;53.596;9.960;2022-11-11T07:00:30;102471.41;;;10.77;nan
14343;BME280;7255;53.596;9.960;2022-11-11T07:02:57;102482.25;;;10.84;nan
14343;BME280;7255;53.596;9.960;2022-11-11T07:05:24;102479.84;;;10.89;nan
14343;BME280;7255;53.596;9.960;2022-11-11T07:07:50;102477.81;;;10.91;nan
14343;BME280;7255;53.596;9.960;2022-11-11T07:10:16;102477.63;;;10.78;nan
14343;BME280;7255;53.596;9.960;2022-11-11T07:12:43;102478.09;;;10.82;nan
14343;BME280;7255;53.596;9.960;2022-11-11T07:15:09;102481.72;;;10.74;nan
14343;BME280;7255;53.596;9.960;2022-11-11T07:17:36;102486.81;;;10.84;nan
14343;BME280;7255;53.596;9.960;2022-11-11T07:20:04;102486.09;;;10.90;nan
14343;BME280;7255;53.596;9.960;2022-11-11T07:22:34;102482.94;;;11.01;nan
14343;BME280;7255;53.596;9.960;2022-11-11T07:25:00;102493.31;;;11.04;nan
14343;BME280;7255;53.596;9.960;2022-11-11T07:27:27;102487.94;;;11.04;nan
14343;BME280;7255;53.596;9.960;2022-11-11T07:29:53;102491.56;;;10.96;nan
14343;BME280;7255;53.596;9.960;2022-11-11T07:32:19;102482.00;;;10.94;nan
14343;BME280;7255;53.596;9.960;2022-11-11T07:34:46;102484.59;;;11.02;nan
14343;BME280;7255;53.596;9.960;2022-11-11T07:37:15;102497.75;;;10.97;nan
14343;BME280;7255;53.596;9.960;2022-11-11T07:39:41;102503.34;;;11.10;nan
14343;BME280;7255;53.596;9.960;2022-11-11T07:42:08;102506.75;;;11.19;nan
14343;BME280;7255;53.596;9.960;2022-11-11T07:44:34;102513.00;;;11.20;nan
14343;BME280;7255;53.596;9.960;2022-11-11T07:47:00;102501.31;;;11.12;nan
14343;BME280;7255;53.596;9.960;2022-11-11T07:49:27;102501.97;;;11.00;nan
14343;BME280;7255;53.596;9.960;2022-11-11T07:51:53;102497.03;;;11.03;nan
14343;BME280;7255;53.596;9.960;2022-11-11T07:54:21;102515.22;;;11.01;nan
14343;BME280;7255;53.596;9.960;2022-11-11T07:56:47;102518.44;;;10.96;nan
14343;BME280;7255;53.596;9.960;2022-11-11T07:59:13;102504.25;;;10.88;nan
14343;BME280;7255;53.596;9.960;2022-11-11T08:01:40;102519.91;;;10.84;nan
14343;BME280;7255;53.596;9.960;2022-11-11T08:04:06;102527.78;;;10.86;nan
14343;BME280;7255;53.596;9.960;2022-11-11T08:06:33;102522.53;;;10.92;nan
14343;BME280;7255;53.596;9.960;2022-11-11T08:08:59;102526.34;;;10.98;nan
14343;BME280;7255;53.596;9.960;2022-11-11T08:11:26;102530.41;;;10.94;nan
14343;BME280;7255;53.596;9.960;2022-11-11T08:14:11;102531.84;;;11.05;nan
14343;BME280;7255;53.596;9.960;2022-11-11T08:16:37;102537.28;;;11.11;nan
14343;BME280;7255;53.596;9.960;2022-11-11T08:19:03;102533.94;;;11.09;nan
14343;BME280;7255;53.596;9.960;2022-11-11T08:21:30;102533.59;;;11.12;nan
14343;BME280;7255;53.596;9.960;2022-11-11T08:23:56;102530.63;;;11.07;nan
14343;BME280;7255;53.596;9.960;2022-11-11T08:26:22;102532.31;;;11.08;nan
14343;BME280;7255;53.596;9.960;2022-11-11T08:28:51;102534.53;;;11.20;nan
14343;BME280;7255;53.596;9.960;2022-11-11T08:31:18;102544.44;;;11.19;nan
14343;BME280;7255;53.596;9.960;2022-11-11T08:33:44;102551.50;;;11.20;nan
14343;BME280;7255;53.596;9.960;2022-11-11T08:36:10;102553.44;;;11.11;nan
14343;BME280;7255;53.596;9.960;2022-11-11T08:38:37;102561.91;;;11.23;nan
14343;BME280;7255;53.596;9.960;2022-11-11T08:41:05;102558.56;;;11.21;nan
14343;BME280;7255;53.596;9.960;2022-11-11T08:43:32;102574.78;;;11.28;nan
14343;BME280;7255;53.596;9.960;2022-11-11T08:46:01;102560.34;;;11.29;nan
14343;BME280;7255;53.596;9.960;2022-11-11T08:48:28;102561.78;;;11.16;nan
14343;BME280;7255;53.596;9.960;2022-11-11T08:50:55;102564.19;;;11.11;nan
14343;BME280;7255;53.596;9.960;2022-11-11T08:53:22;102581.75;;;11.22;nan
14343;BME280;7255;53.596;9.960;2022-11-11T08:55:48;102580.16;;;11.28;nan
14343;BME280;7255;53.596;9.960;2022-11-11T08:58:15;102567.38;;;11.30;nan
14343;BME280;7255;53.596;9.960;2022-11-11T09:00:41;102568.78;;;11.41;nan
14343;BME280;7255;53.596;9.960;2022-11-11T09:03:10;102569.16;;;11.38;nan
14343;BME280;7255;53.596;9.960;2022-11-11T09:05:37;102574.62;;;11.44;nan
14343;BME280;7255;53.596;9.960;2022-11-11T09:08:05;102566.94;;;11.56;nan
14343;BME280;7255;53.596;9.960;2022-11-11T09:10:32;102572.84;;;11.66;nan
14343;BME280;7255;53.596;9.960;2022-11-11T09:12:59;102580.94;;;11.51;nan
14343;BME280;7255;53.596;9.960;2022-11-11T09:15:26;102588.66;;;11.40;nan
14343;BME280;7255;53.596;9.960;2022-11-11T09:17:53;102593.09;;;11.32;nan
14343;BME280;7255;53.596;9.960;2022-11-11T09:20:22;102582.56;;;11.23;nan
14343;BME280;7255;53.596;9.960;2022-11-11T09:22:48;102588.53;;;11.33;nan
14343;BME280;7255;53.596;9.960;2022-11-11T09:25:16;102599.31;;;11.33;nan
14343;BME280;7255;53.596;9.960;2022-11-11T09:27:42;102596.06;;;11.38;nan
14343;BME280;7255;53.596;9.960;2022-11-11T09:30:09;102604.50;;;11.49;nan
14343;BME280;7255;53.596;9.960;2022-11-11T09:32:36;102598.47;;;11.62;nan
14343;BME280;7255;53.596;9.960;2022-11-11T09:35:03;102594.03;;;11.69;nan
14343;BME280;7255;53.596;9.960;2022-11-11T09:37:30;102592.81;;;11.72;nan
14343;BME280;7255;53.596;9.960;2022-11-11T09:39:57;102606.53;;;11.77;nan
14343;BME280;7255;53.596;9.960;2022-11-11T09:42:31;102603.22;;;11.75;nan
14343;BME280;7255;53.596;9.960;2022-11-11T09:45:08;102604.13;;;11.82;nan
14343;BME280;7255;53.596;9.960;2022-11-11T09:47:44;102612.75;;;11.78;nan
14343;BME280;7255;53.596;9.960;2022-11-11T09:50:15;102612.13;;;11.90;nan
14343;BME280;7255;53.596;9.960;2022-11-11T09:52:47;102615.19;;;12.02;nan
14343;BME280;7255;53.596;9.960;2022-11-11T09:55:19;102622.03;;;12.20;nan
14343;BME280;7255;53.596;9.960;2022-11-11T09:57:48;102610.06;;;12.22;nan
14343;BME280;7255;53.596;9.960;2022-11-11T10:00:20;102622.03;;;12.20;nan
14343;BME280;7255;53.596;9.960;2022-11-11T10:02:50;102619.16;;;12.21;nan
14343;BME280;7255;53.596;9.960;2022-11-11T10:05:20;102624.94;;;12.18;nan
14343;BME280;7255;53.596;9.960;2022-11-11T10:07:51;102619.00;;;12.08;nan
14343;BME280;7255;53.596;9.960;2022-11-11T10:10:23;102624.72;;;12.20;nan
14343;BME280;7255;53.596;9.960;2022-11-11T10:12:54;102626.00;;;12.39;nan
14343;BME280;7255;53.596;9.960;2022-11-11T10:15:21;102631.88;;;12.49;nan
14343;BME280;7255;53.596;9.960;2022-11-11T10:18:00;102632.97;;;12.33;nan
14343;BME280;7255;53.596;9.960;2022-11-11T10:20:32;102628.97;;;12.44;nan
14343;BME280;7255;53.596;9.960;2022-11-11T10:23:09;102625.66;;;12.48;nan
14343;BME280;7255;53.596;9.960;2022-11-11T10:25:40;102631.19;;;12.62;nan
14343;BME280;7255;53.596;9.960;2022-11-11T10:28:14;102641.16;;;12.61;nan
14343;BME280;7255;53.596;9.960;2022-11-11T10:30:41;102642.03;;;12.25;nan
14343;BME280;7255;53.596;9.960;2022-11-11T10:33:13;102641.47;;;12.15;nan
14343;BME280;7255;53.596;9.960;2022-11-11T10:35:44;102647.41;;;12.25;nan
14343;BME280;7255;53.596;9.960;2022-11-11T10:38:22;102644.97;;;12.30;nan
14343;BME280;7255;53.596;9.960;2022-11-11T10:40:52;102650.34;;;12.30;nan
14343;BME280;7255;53.596;9.960;2022-11-11T10:43:21;102640.88;;;12.35;nan
14343;BME280;7255;53.596;9.960;2022-11-11T10:45:53;102654.09;;;12.29;nan
14343;BME280;7255;53.596;9.960;2022-11-11T10:48:29;102643.13;;;12.52;nan
14343;BME280;7255;53.596;9.960;2022-11-11T10:50:59;102641.84;;;12.48;nan
14343;BME280;7255;53.596;9.960;2022-11-11T10:53:33;102644.81;;;12.54;nan
14343;BME280;7255;53.596;9.960;2022-11-11T10:56:04;102653.63;;;12.62;nan
14343;BME280;7255;53.596;9.960;2022-11-11T10:58:36;102642.25;;;12.88;nan
14343;BME280;7255;53.596;9.960;2022-11-11T11:01:06;102648.47;;;12.89;nan
14343;BME280;7255;53.596;9.960;2022-11-11T11:03:36;102642.59;;;12.79;nan
14343;BME280;7255;53.596;9.960;2022-11-11T11:06:10;102648.62;;;12.81;nan
14343;BME280;7255;53.596;9.960;2022-11-11T11:08:41;102632.50;;;12.66;nan
14343;BME280;7255;53.596;9.960;2022-11-11T11:11:17;102640.25;;;12.54;nan
14343;BME280;7255;53.596;9.960;2022-11-11T11:13:49;102635.69;;;12.55;nan
14343;BME280;7255;53.596;9.960;2022-11-11T11:16:20;102637.75;;;12.52;nan
14343;BME280;7255;53.596;9.960;2022-11-11T11:19:12;102636.00;;;12.45;nan
14343;BME280;7255;53.596;9.960;2022-11-11T11:21:47;102649.16;;;12.33;nan
14343;BME280;7255;53.596;9.960;2022-11-11T11:24:23;102641.03;;;12.48;nan
14343;BME280;7255;53.596;9.960;2022-11-11T11:26:53;102641.72;;;12.78;nan
14343;BME280;7255;53.596;9.960;2022-11-11T11:29:24;102656.31;;;12.84;nan
14343;BME280;7255;53.596;9.960;2022-11-11T11:31:51;102645.59;;;12.90;nan
14343;BME280;7255;53.596;9.960;2022-11-11T11:34:18;102654.72;;;12.89;nan
14343;BME280;7255;53.596;9.960;2022-11-11T11:36:58;102654.72;;;12.89;nan
14343;BME280;7255;53.596;9.960;2022-11-11T11:39:33;102654.72;;;12.89;nan
14343;BME280;7255;53.596;9.960;2022-11-11T11:42:00;102649.00;;;12.99;nan
14343;BME280;7255;53.596;9.960;2022-11-11T11:44:28;102651.50;;;13.01;nan
14343;BME280;7255;53.596;9.960;2022-11-11T11:47:02;102643.03;;;12.82;nan
14343;BME280;7255;53.596;9.960;2022-11-11T11:49:46;102651.69;;;12.78;nan
14343;BME280;7255;53.596;9.960;2022-11-11T11:52:20;102653.28;;;12.72;nan
14343;BME280;7255;53.596;9.960;2022-11-11T11:54:55;102654.81;;;12.60;nan
14343;BME280;7255;53.596;9.960;2022-11-11T11:57:38;102650.91;;;12.41;nan
14343;BME280;7255;53.596;9.960;2022-11-11T12:00:13;102650.28;;;12.60;nan
14343;BME280;7255;53.596;9.960;2022-11-11T12:03:02;102650.41;;;12.74;nan
14343;BME280;7255;53.596;9.960;2022-11-11T12:05:37;102637.81;;;12.59;nan
14343;BME280;7255;53.596;9.960;2022-11-11T12:08:20;102641.94;;;12.55;nan
14343;BME280;7255;53.596;9.960;2022-11-11T12:10:56;102642.59;;;12.79;nan
14343;BME280;7255;53.596;9.960;2022-11-11T12:13:34;102649.63;;;12.80;nan
14343;BME280;7255;53.596;9.960;2022-11-11T12:16:18;102645.03;;;12.74;nan
14343;BME280;7255;53.596;9.960;2022-11-11T12:19:00;102651.56;;;12.64;nan
14343;BME280;7255;53.596;9.960;2022-11-11T12:21:36;102644.03;;;12.60;nan
14343;BME280;7255;53.596;9.960;2022-11-11T12:24:10;102649.44;;;12.60;nan
14343;BME280;7255;53.596;9.960;2022-11-11T12:26:46;102646.87;;;12.51;nan
14343;BME280;7255;53.596;9.960;2022-11-11T12:29:26;102655.59;;;12.54;nan
14343;BME280;7255;53.596;9.960;2022-11-11T12:32:25;102663.03;;;12.51;nan
14343;BME280;7255;53.596;9.960;2022-11-11T12:35:06;102648.97;;;12.56;nan
14343;BME280;7255;53.596;9.960;2022-11-11T12:37:47;102646.91;;;12.58;nan
14343;BME280;7255;53.596;9.960;2022-11-11T12:40:23;102661.53;;;12.64;nan
14343;BME280;7255;53.596;9.960;2022-11-11T12:43:02;102655.91;;;12.44;nan
14343;BME280;7255;53.596;9.960;2022-11-11T12:45:37;102666.31;;;12.47;nan
14343;BME280;7255;53.596;9.960;2022-11-11T12:48:21;102654.06;;;12.66;nan
14343;BME280;7255;53.596;9.960;2022-11-11T12:50:58;102657.47;;;12.75;nan
14343;BME280;7255;53.596;9.960;2022-11-11T12:53:32;102653.37;;;12.79;nan
14343;BME280;7255;53.596;9.960;2022-11-11T12:56:10;102663.84;;;12.88;nan
14343;BME280;7255;53.596;9.960;2022-11-11T12:58:43;102659.72;;;12.93;nan
14343;BME280;7255;53.596;9.960;2022-11-11T13:01:19;102659.72;;;12.93;nan
14343;BME280;7255;53.596;9.960;2022-11-11T13:03:55;102663.25;;;12.71;nan
14343;BME280;7255;53.596;9.960;2022-11-11T13:06:42;102658.62;;;12.65;nan
14343;BME280;7255;53.596;9.960;2022-11-11T13:09:27;102667.34;;;12.67;nan
14343;BME280;7255;53.596;9.960;2022-11-11T13:12:03;102670.03;;;12.46;nan
14343;BME280;7255;53.596;9.960;2022-11-11T13:14:55;102667.37;;;12.31;nan
14343;BME280;7255;53.596;9.960;2022-11-11T13:17:23;102651.03;;;12.18;nan
14343;BME280;7255;53.596;9.960;2022-11-11T13:19:53;102666.72;;;12.14;nan
14343;BME280;7255;53.596;9.960;2022-11-11T13:22:22;102674.37;;;12.25;nan
14343;BME280;7255;53.596;9.960;2022-11-11T13:24:50;102669.44;;;12.14;nan
14343;BME280;7255;53.596;9.960;2022-11-11T13:27:25;102675.09;;;12.19;nan
14343;BME280;7255;53.596;9.960;2022-11-11T13:32:48;102686.00;;;12.62;nan
14343;BME280;7255;53.596;9.960;2022-11-11T13:35:20;102681.19;;;12.43;nan
14343;BME280;7255;53.596;9.960;2022-11-11T13:37:47;102675.25;;;12.32;nan
14343;BME280;7255;53.596;9.960;2022-11-11T13:40:28;102685.50;;;12.22;nan
14343;BME280;7255;53.596;9.960;2022-11-11T13:42:57;102678.63;;;12.35;nan
14343;BME280;7255;53.596;9.960;2022-11-11T13:45:29;102684.06;;;12.41;nan